sensor_id;sensor_type;location;lat;lon;timestamp;pressure;altitude;pressure_sealevel;temperature;humidity
8298;BME280;4187;42.778;23.242;2023-06-14T00:00:38;95010.03;;;17.52;100.00
8298;BME280;4187;42.778;23.242;2023-06-14T00:03:06;94995.81;;;17.45;100.00
8298;BME280;4187;42.778;23.242;2023-06-14T00:05:35;94999.31;;;17.45;100.00
8298;BME280;4187;42.778;23.242;2023-06-14T00:08:06;94992.66;;;17.34;100.00
8298;BME280;4187;42.778;23.242;2023-06-14T00:10:33;95003.56;;;17.40;100.00
8298;BME280;4187;42.778;23.242;2023-06-14T00:13:01;94992.06;;;17.39;100.00
8298;BME280;4187;42.778;23.242;2023-06-14T00:15:30;95002.19;;;17.44;100.00
8298;BME280;4187;42.778;23.242;2023-06-14T00:18:00;94971.00;;;17.23;100.00
8298;BME280;4187;42.778;23.242;2023-06-14T00:20:27;95003.63;;;17.46;100.00
8298;BME280;4187;42.778;23.242;2023-06-14T00:22:55;94992.69;;;17.41;100.00
8298;BME280;4187;42.778;23.242;2023-06-14T00:25:23;94972.91;;;17.29;100.00
8298;BME280;4187;42.778;23.242;2023-06-14T00:27:51;94985.53;;;17.42;100.00
8298;BME280;4187;42.778;23.242;2023-06-14T00:30:18;94994.56;;;17.41;100.00
8298;BME280;4187;42.778;23.242;2023-06-14T00:32:45;94983.22;;;17.39;100.00
8298;BME280;4187;42.778;23.242;2023-06-14T00:35:14;94981.47;;;17.46;100.00
8298;BME280;4187;42.778;23.242;2023-06-14T00:37:42;94981.63;;;17.44;100.00
8298;BME280;4187;42.778;23.242;2023-06-14T00:40:09;94917.19;;;17.13;100.00
8298;BME280;4187;42.778;23.242;2023-06-14T00:42:37;94977.19;;;17.51;100.00
8298;BME280;4187;42.778;23.242;2023-06-14T00:45:05;94967.91;;;17.47;100.00
8298;BME280;4187;42.778;23.242;2023-06-14T00:47:33;94975.34;;;17.52;100.00
8298;BME280;4187;42.778;23.242;2023-06-14T00:50:01;94986.22;;;17.50;100.00
8298;BME280;4187;42.778;23.242;2023-06-14T00:52:31;94985.59;;;17.48;100.00
8298;BME280;4187;42.778;23.242;2023-06-14T00:54:58;94988.88;;;17.50;100.00
8298;BME280;4187;42.778;23.242;2023-06-14T00:57:26;94981.47;;;17.46;100.00
8298;BME280;4187;42.778;23.242;2023-06-14T00:59:55;94978.19;;;17.44;100.00
8298;BME280;4187;42.778;23.242;2023-06-14T01:02:23;94971.19;;;17.43;100.00
8298;BME280;4187;42.778;23.242;2023-06-14T01:04:51;94975.88;;;17.41;100.00
8298;BME280;4187;42.778;23.242;2023-06-14T01:07:33;94978.09;;;17.37;100.00
8298;BME280;4187;42.778;23.242;2023-06-14T01:10:17;94977.72;;;17.40;100.00
8298;BME280;4187;42.778;23.242;2023-06-14T01:12:53;94967.06;;;17.40;100.00
8298;BME280;4187;42.778;23.242;2023-06-14T01:15:24;94981.03;;;17.42;100.00
8298;BME280;4187;42.778;23.242;2023-06-14T01:17:53;94959.00;;;17.33;100.00
8298;BME280;4187;42.778;23.242;2023-06-14T01:20:28;94977.72;;;17.40;100.00
8298;BME280;4187;42.778;23.242;2023-06-14T01:22:58;94978.56;;;17.41;100.00
8298;BME280;4187;42.778;23.242;2023-06-14T01:25:25;94975.63;;;17.35;100.00
8298;BME280;4187;42.778;23.242;2023-06-14T01:27:55;94963.63;;;17.25;100.00
8298;BME280;4187;42.778;23.242;2023-06-14T01:30:25;94972.91;;;17.29;100.00
8298;BME280;4187;42.778;23.242;2023-06-14T01:32:55;94972.31;;;17.33;100.00
8298;BME280;4187;42.778;23.242;2023-06-14T01:35:23;94967.13;;;17.25;100.00
8298;BME280;4187;42.778;23.242;2023-06-14T01:37:51;94973.53;;;17.31;100.00
8298;BME280;4187;42.778;23.242;2023-06-14T01:40:21;94974.38;;;17.31;100.00
8298;BME280;4187;42.778;23.242;2023-06-14T01:42:50;94983.81;;;17.34;100.00
8298;BME280;4187;42.778;23.242;2023-06-14T01:45:20;94973.16;;;17.34;100.00
8298;BME280;4187;42.778;23.242;2023-06-14T01:47:48;94982.63;;;17.37;100.00
8298;BME280;4187;42.778;23.242;2023-06-14T01:50:16;94975.22;;;17.39;100.00
8298;BME280;4187;42.778;23.242;2023-06-14T01:52:47;94982.22;;;17.40;100.00
8298;BME280;4187;42.778;23.242;2023-06-14T01:55:17;94984.91;;;17.40;100.00
8298;BME280;4187;42.778;23.242;2023-06-14T01:57:51;94982.16;;;17.33;100.00
8298;BME280;4187;42.778;23.242;2023-06-14T02:00:20;94994.13;;;17.37;100.00
8298;BME280;4187;42.778;23.242;2023-06-14T02:02:49;94994.13;;;17.37;100.00
8298;BME280;4187;42.778;23.242;2023-06-14T02:05:22;94987.63;;;17.25;100.00
8298;BME280;4187;42.778;23.242;2023-06-14T02:07:51;94948.44;;;16.98;100.00
8298;BME280;4187;42.778;23.242;2023-06-14T02:10:20;95011.63;;;17.25;100.00
8298;BME280;4187;42.778;23.242;2023-06-14T02:12:50;95004.69;;;17.24;100.00
8298;BME280;4187;42.778;23.242;2023-06-14T02:15:20;94976.25;;;17.10;100.00
8298;BME280;4187;42.778;23.242;2023-06-14T02:17:49;94992.31;;;17.16;100.00
8298;BME280;4187;42.778;23.242;2023-06-14T02:20:18;95004.06;;;17.22;100.00
8298;BME280;4187;42.778;23.242;2023-06-14T02:22:48;95005.31;;;17.26;100.00
8298;BME280;4187;42.778;23.242;2023-06-14T02:25:16;95006.13;;;17.26;100.00
8298;BME280;4187;42.778;23.242;2023-06-14T02:27:47;95011.00;;;17.23;100.00
8298;BME280;4187;42.778;23.242;2023-06-14T02:30:17;95002.97;;;17.16;100.00
8298;BME280;4187;42.778;23.242;2023-06-14T02:32:47;95013.63;;;17.16;100.00
8298;BME280;4187;42.778;23.242;2023-06-14T02:35:19;95003.78;;;17.17;100.00
8298;BME280;4187;42.778;23.242;2023-06-14T02:37:51;95000.47;;;17.15;100.00
8298;BME280;4187;42.778;23.242;2023-06-14T02:40:21;95004.34;;;17.12;100.00
8298;BME280;4187;42.778;23.242;2023-06-14T02:42:50;94998.19;;;17.12;100.00
8298;BME280;4187;42.778;23.242;2023-06-14T02:45:20;94993.53;;;17.14;100.00
8298;BME280;4187;42.778;23.242;2023-06-14T02:47:50;94988.94;;;17.08;100.00
8298;BME280;4187;42.778;23.242;2023-06-14T02:50:20;94996.75;;;17.09;100.00
8298;BME280;4187;42.778;23.242;2023-06-14T02:52:50;94972.41;;;16.98;100.00
8298;BME280;4187;42.778;23.242;2023-06-14T02:55:19;94992.69;;;17.13;100.00
8298;BME280;4187;42.778;23.242;2023-06-14T02:57:47;94985.00;;;17.04;100.00
8298;BME280;4187;42.778;23.242;2023-06-14T03:00:17;95004.44;;;17.19;100.00
8298;BME280;4187;42.778;23.242;2023-06-14T03:02:47;94995.91;;;17.09;100.00
8298;BME280;4187;42.778;23.242;2023-06-14T03:05:15;95014.44;;;17.17;100.00
8298;BME280;4187;42.778;23.242;2023-06-14T03:07:47;95009.50;;;17.14;100.00
8298;BME280;4187;42.778;23.242;2023-06-14T03:10:17;95018.56;;;17.19;100.00
8298;BME280;4187;42.778;23.242;2023-06-14T03:12:45;95016.69;;;17.13;100.00
8298;BME280;4187;42.778;23.242;2023-06-14T03:15:13;95025.53;;;17.14;100.00
8298;BME280;4187;42.778;23.242;2023-06-14T03:17:46;95027.78;;;17.17;100.00
8298;BME280;4187;42.778;23.242;2023-06-14T03:20:15;95025.53;;;17.14;100.00
8298;BME280;4187;42.778;23.242;2023-06-14T03:22:44;95031.03;;;17.12;100.00
8298;BME280;4187;42.778;23.242;2023-06-14T03:25:14;95025.69;;;17.12;100.00
8298;BME280;4187;42.778;23.242;2023-06-14T03:27:43;95028.34;;;17.12;100.00
8298;BME280;4187;42.778;23.242;2023-06-14T03:30:12;94998.69;;;17.01;100.00
8298;BME280;4187;42.778;23.242;2023-06-14T03:32:41;95018.28;;;17.35;100.00
8298;BME280;4187;42.778;23.242;2023-06-14T03:35:14;95028.09;;;18.05;100.00
8298;BME280;4187;42.778;23.242;2023-06-14T03:37:46;95031.22;;;18.49;100.00
8298;BME280;4187;42.778;23.242;2023-06-14T03:40:17;95025.13;;;18.69;100.00
8298;BME280;4187;42.778;23.242;2023-06-14T03:42:45;95030.13;;;18.91;100.00
8298;BME280;4187;42.778;23.242;2023-06-14T03:45:12;95034.88;;;18.96;100.00
8298;BME280;4187;42.778;23.242;2023-06-14T03:47:40;95042.47;;;18.92;100.00
8298;BME280;4187;42.778;23.242;2023-06-14T03:50:08;95042.91;;;18.96;100.00
8298;BME280;4187;42.778;23.242;2023-06-14T03:52:38;95047.63;;;18.94;100.00
8298;BME280;4187;42.778;23.242;2023-06-14T03:55:09;95049.47;;;18.87;100.00
8298;BME280;4187;42.778;23.242;2023-06-14T03:57:39;95041.44;;;18.87;100.00
8298;BME280;4187;42.778;23.242;2023-06-14T04:00:10;95028.84;;;18.74;100.00
8298;BME280;4187;42.778;23.242;2023-06-14T04:02:39;95058.25;;;18.74;100.00
8298;BME280;4187;42.778;23.242;2023-06-14T04:05:07;95052.59;;;18.49;100.00
8298;BME280;4187;42.778;23.242;2023-06-14T04:07:37;95054.34;;;18.36;100.00
8298;BME280;4187;42.778;23.242;2023-06-14T04:10:14;95047.31;;;18.28;100.00
8298;BME280;4187;42.778;23.242;2023-06-14T04:12:43;95049.88;;;18.09;100.00
8298;BME280;4187;42.778;23.242;2023-06-14T04:15:10;95049.63;;;18.04;100.00
8298;BME280;4187;42.778;23.242;2023-06-14T04:17:41;95047.94;;;17.96;100.00
8298;BME280;4187;42.778;23.242;2023-06-14T04:20:11;95043.22;;;17.91;100.00
8298;BME280;4187;42.778;23.242;2023-06-14T04:22:42;95039.25;;;17.87;100.00
8298;BME280;4187;42.778;23.242;2023-06-14T04:25:11;95048.94;;;17.88;100.00
8298;BME280;4187;42.778;23.242;2023-06-14T04:27:38;95039.50;;;17.92;100.00
8298;BME280;4187;42.778;23.242;2023-06-14T04:30:08;95045.09;;;17.98;100.00
8298;BME280;4187;42.778;23.242;2023-06-14T04:32:37;95045.97;;;18.05;100.00
8298;BME280;4187;42.778;23.242;2023-06-14T04:35:06;95035.03;;;18.00;100.00
8298;BME280;4187;42.778;23.242;2023-06-14T04:37:35;95038.09;;;17.97;100.00
8298;BME280;4187;42.778;23.242;2023-06-14T04:40:09;95047.41;;;18.07;100.00
8298;BME280;4187;42.778;23.242;2023-06-14T04:42:38;95045.59;;;18.14;100.00
8298;BME280;4187;42.778;23.242;2023-06-14T04:45:07;95047.69;;;18.19;100.00
8298;BME280;4187;42.778;23.242;2023-06-14T04:47:36;95048.94;;;18.23;100.00
8298;BME280;4187;42.778;23.242;2023-06-14T04:50:05;95057.00;;;18.29;100.00
8298;BME280;4187;42.778;23.242;2023-06-14T04:52:34;95040.09;;;18.22;100.00
8298;BME280;4187;42.778;23.242;2023-06-14T04:55:01;95058.06;;;18.41;100.00
8298;BME280;4187;42.778;23.242;2023-06-14T04:57:32;95043.81;;;18.28;100.00
8298;BME280;4187;42.778;23.242;2023-06-14T05:00:01;95052.28;;;18.31;100.00
8298;BME280;4187;42.778;23.242;2023-06-14T05:02:30;95070.41;;;18.42;100.00
8298;BME280;4187;42.778;23.242;2023-06-14T05:04:59;95076.19;;;18.46;100.00
8298;BME280;4187;42.778;23.242;2023-06-14T05:07:28;95067.31;;;18.39;100.00
8298;BME280;4187;42.778;23.242;2023-06-14T05:09:58;95079.53;;;18.48;100.00
8298;BME280;4187;42.778;23.242;2023-06-14T05:12:27;95074.91;;;18.35;100.00
8298;BME280;4187;42.778;23.242;2023-06-14T05:14:57;95081.44;;;18.33;100.00
8298;BME280;4187;42.778;23.242;2023-06-14T05:17:25;95072.97;;;18.23;100.00
8298;BME280;4187;42.778;23.242;2023-06-14T05:19:54;95088.00;;;18.30;100.00
8298;BME280;4187;42.778;23.242;2023-06-14T05:22:22;95100.41;;;18.38;100.00
8298;BME280;4187;42.778;23.242;2023-06-14T05:24:50;95094.03;;;18.39;100.00
8298;BME280;4187;42.778;23.242;2023-06-14T05:27:17;95098.75;;;18.37;100.00
8298;BME280;4187;42.778;23.242;2023-06-14T05:29:45;95102.13;;;18.52;100.00
8298;BME280;4187;42.778;23.242;2023-06-14T05:32:15;95104.88;;;18.59;100.00
8298;BME280;4187;42.778;23.242;2023-06-14T05:34:43;95108.78;;;18.63;100.00
8298;BME280;4187;42.778;23.242;2023-06-14T05:37:11;95089.38;;;18.47;100.00
8298;BME280;4187;42.778;23.242;2023-06-14T05:39:39;95111.25;;;18.64;100.00
8298;BME280;4187;42.778;23.242;2023-06-14T05:42:07;95100.28;;;18.93;100.00
8298;BME280;4187;42.778;23.242;2023-06-14T05:44:36;95099.94;;;19.16;100.00
8298;BME280;4187;42.778;23.242;2023-06-14T05:47:05;95102.81;;;19.15;100.00
8298;BME280;4187;42.778;23.242;2023-06-14T05:49:35;95113.13;;;19.11;100.00
8298;BME280;4187;42.778;23.242;2023-06-14T05:52:04;95103.81;;;19.07;100.00
8298;BME280;4187;42.778;23.242;2023-06-14T05:54:32;95108.38;;;19.13;100.00
8298;BME280;4187;42.778;23.242;2023-06-14T05:57:00;95113.72;;;19.20;100.00
8298;BME280;4187;42.778;23.242;2023-06-14T05:59:30;95114.59;;;19.27;100.00
8298;BME280;4187;42.778;23.242;2023-06-14T06:01:59;95119.94;;;19.27;100.00
8298;BME280;4187;42.778;23.242;2023-06-14T06:04:26;95129.19;;;19.31;100.00
8298;BME280;4187;42.778;23.242;2023-06-14T06:06:56;95116.44;;;19.26;100.00
8298;BME280;4187;42.778;23.242;2023-06-14T06:09:24;95117.09;;;19.35;100.00
8298;BME280;4187;42.778;23.242;2023-06-14T06:11:52;95125.59;;;19.51;100.00
8298;BME280;4187;42.778;23.242;2023-06-14T06:14:20;95129.31;;;19.57;100.00
8298;BME280;4187;42.778;23.242;2023-06-14T06:16:48;95130.53;;;19.61;100.00
8298;BME280;4187;42.778;23.242;2023-06-14T06:19:15;95135.50;;;19.71;100.00
8298;BME280;4187;42.778;23.242;2023-06-14T06:21:42;95132.19;;;19.82;100.00
8298;BME280;4187;42.778;23.242;2023-06-14T06:24:11;95129.53;;;19.88;100.00
8298;BME280;4187;42.778;23.242;2023-06-14T06:26:38;95134.69;;;19.90;100.00
8298;BME280;4187;42.778;23.242;2023-06-14T06:29:05;95134.28;;;19.99;100.00
8298;BME280;4187;42.778;23.242;2023-06-14T06:31:33;95144.78;;;20.07;100.00
8298;BME280;4187;42.778;23.242;2023-06-14T06:34:01;95131.81;;;20.17;100.00
8298;BME280;4187;42.778;23.242;2023-06-14T06:36:28;95126.03;;;20.20;100.00
8298;BME280;4187;42.778;23.242;2023-06-14T06:38:56;95134.31;;;20.32;100.00
8298;BME280;4187;42.778;23.242;2023-06-14T06:41:24;95141.91;;;20.42;100.00
8298;BME280;4187;42.778;23.242;2023-06-14T06:43:52;95133.88;;;20.42;100.00
8298;BME280;4187;42.778;23.242;2023-06-14T06:46:19;95140.03;;;20.62;100.00
8298;BME280;4187;42.778;23.242;2023-06-14T06:48:46;95140.41;;;20.72;100.00
8298;BME280;4187;42.778;23.242;2023-06-14T06:51:14;95146.13;;;20.88;100.00
8298;BME280;4187;42.778;23.242;2023-06-14T06:53:42;95150.81;;;21.06;100.00
8298;BME280;4187;42.778;23.242;2023-06-14T06:56:11;95152.03;;;21.17;100.00
8298;BME280;4187;42.778;23.242;2023-06-14T06:58:39;95149.31;;;21.30;100.00
8298;BME280;4187;42.778;23.242;2023-06-14T07:01:08;95146.16;;;21.46;100.00
8298;BME280;4187;42.778;23.242;2023-06-14T07:03:36;95153.28;;;21.59;100.00
8298;BME280;4187;42.778;23.242;2023-06-14T07:06:03;95156.50;;;21.74;100.00
8298;BME280;4187;42.778;23.242;2023-06-14T07:08:31;95153.13;;;21.91;100.00
8298;BME280;4187;42.778;23.242;2023-06-14T07:10:59;95148.91;;;22.02;100.00
8298;BME280;4187;42.778;23.242;2023-06-14T07:13:26;95153.56;;;22.13;100.00
8298;BME280;4187;42.778;23.242;2023-06-14T07:15:58;95104.69;;;21.98;100.00
8298;BME280;4187;42.778;23.242;2023-06-14T07:18:25;95157.31;;;22.37;100.00
8298;BME280;4187;42.778;23.242;2023-06-14T07:20:53;95159.59;;;22.58;100.00
8298;BME280;4187;42.778;23.242;2023-06-14T07:23:22;95151.22;;;22.73;100.00
8298;BME280;4187;42.778;23.242;2023-06-14T07:25:50;95158.09;;;22.87;100.00
8298;BME280;4187;42.778;23.242;2023-06-14T07:28:17;95168.47;;;23.01;100.00
8298;BME280;4187;42.778;23.242;2023-06-14T07:30:45;95158.00;;;23.11;100.00
8298;BME280;4187;42.778;23.242;2023-06-14T07:33:16;95163.03;;;23.26;100.00
8298;BME280;4187;42.778;23.242;2023-06-14T07:35:44;95157.78;;;23.31;100.00
8298;BME280;4187;42.778;23.242;2023-06-14T07:38:11;95155.88;;;23.38;100.00
8298;BME280;4187;42.778;23.242;2023-06-14T07:40:39;95156.22;;;23.42;100.00
8298;BME280;4187;42.778;23.242;2023-06-14T07:43:06;95153.00;;;23.51;100.00
8298;BME280;4187;42.778;23.242;2023-06-14T07:45:33;95151.53;;;23.67;100.00
8298;BME280;4187;42.778;23.242;2023-06-14T07:48:01;95146.53;;;23.82;100.00
8298;BME280;4187;42.778;23.242;2023-06-14T07:50:30;95159.16;;;24.00;100.00
8298;BME280;4187;42.778;23.242;2023-06-14T07:52:58;95159.56;;;24.15;100.00
8298;BME280;4187;42.778;23.242;2023-06-14T07:55:26;95149.59;;;24.15;100.00
8298;BME280;4187;42.778;23.242;2023-06-14T07:57:53;95152.91;;;24.29;100.00
8298;BME280;4187;42.778;23.242;2023-06-14T08:00:21;95165.81;;;24.38;100.00
8298;BME280;4187;42.778;23.242;2023-06-14T08:02:49;95175.69;;;24.45;100.00
8298;BME280;4187;42.778;23.242;2023-06-14T08:05:20;95175.91;;;24.43;100.00
8298;BME280;4187;42.778;23.242;2023-06-14T08:07:50;95181.91;;;24.45;100.00
8298;BME280;4187;42.778;23.242;2023-06-14T08:10:18;95174.03;;;24.55;100.00
8298;BME280;4187;42.778;23.242;2023-06-14T08:12:46;95188.13;;;24.69;100.00
8298;BME280;4187;42.778;23.242;2023-06-14T08:15:14;95178.75;;;24.71;100.00
8298;BME280;4187;42.778;23.242;2023-06-14T08:17:42;95194.00;;;24.77;100.00
8298;BME280;4187;42.778;23.242;2023-06-14T08:20:11;95192.03;;;24.73;100.00
8298;BME280;4187;42.778;23.242;2023-06-14T08:22:39;95188.84;;;24.64;100.00
8298;BME280;4187;42.778;23.242;2023-06-14T08:25:10;95190.69;;;24.52;100.00
8298;BME280;4187;42.778;23.242;2023-06-14T08:27:39;95183.66;;;24.51;100.00
8298;BME280;4187;42.778;23.242;2023-06-14T08:30:08;95191.41;;;24.59;100.00
8298;BME280;4187;42.778;23.242;2023-06-14T08:32:35;95190.94;;;24.74;100.00
8298;BME280;4187;42.778;23.242;2023-06-14T08:35:02;95186.16;;;24.76;100.00
8298;BME280;4187;42.778;23.242;2023-06-14T08:37:30;95186.06;;;24.82;100.00
8298;BME280;4187;42.778;23.242;2023-06-14T08:39:57;95176.91;;;24.83;100.00
8298;BME280;4187;42.778;23.242;2023-06-14T08:42:25;95190.63;;;24.93;100.00
8298;BME280;4187;42.778;23.242;2023-06-14T08:44:52;95178.16;;;25.16;100.00
8298;BME280;4187;42.778;23.242;2023-06-14T08:47:22;95181.34;;;25.13;100.00
8298;BME280;4187;42.778;23.242;2023-06-14T08:49:51;95180.75;;;25.11;100.00
8298;BME280;4187;42.778;23.242;2023-06-14T08:52:21;95170.28;;;25.14;100.00
8298;BME280;4187;42.778;23.242;2023-06-14T08:54:49;95174.28;;;25.12;100.00
8298;BME280;4187;42.778;23.242;2023-06-14T08:57:16;95176.41;;;25.10;100.00
8298;BME280;4187;42.778;23.242;2023-06-14T08:59:47;95163.28;;;25.02;100.00
8298;BME280;4187;42.778;23.242;2023-06-14T09:02:18;95171.38;;;25.02;100.00
8298;BME280;4187;42.778;23.242;2023-06-14T09:04:48;95150.13;;;24.93;100.00
8298;BME280;4187;42.778;23.242;2023-06-14T09:07:16;95168.53;;;25.20;100.00
8298;BME280;4187;42.778;23.242;2023-06-14T09:09:43;95170.25;;;25.37;100.00
8298;BME280;4187;42.778;23.242;2023-06-14T09:12:11;95165.66;;;25.49;100.00
8298;BME280;4187;42.778;23.242;2023-06-14T09:14:38;95161.97;;;25.67;100.00
8298;BME280;4187;42.778;23.242;2023-06-14T09:17:13;95160.25;;;25.89;100.00
8298;BME280;4187;42.778;23.242;2023-06-14T09:19:40;95161.16;;;26.11;100.00
8298;BME280;4187;42.778;23.242;2023-06-14T09:22:07;95158.59;;;26.33;100.00
8298;BME280;4187;42.778;23.242;2023-06-14T09:24:37;95161.38;;;26.55;100.00
8298;BME280;4187;42.778;23.242;2023-06-14T09:27:05;95156.66;;;26.62;100.00
8298;BME280;4187;42.778;23.242;2023-06-14T09:29:32;95152.63;;;26.81;99.65
8298;BME280;4187;42.778;23.242;2023-06-14T09:31:59;95154.94;;;26.89;97.51
8298;BME280;4187;42.778;23.242;2023-06-14T09:34:28;95143.00;;;26.90;98.11
8298;BME280;4187;42.778;23.242;2023-06-14T09:36:56;95148.09;;;27.03;98.49
8298;BME280;4187;42.778;23.242;2023-06-14T09:39:24;95144.53;;;27.19;98.14
8298;BME280;4187;42.778;23.242;2023-06-14T09:41:52;95143.25;;;27.27;92.96
8298;BME280;4187;42.778;23.242;2023-06-14T09:44:20;95133.47;;;27.26;93.25
8298;BME280;4187;42.778;23.242;2023-06-14T09:46:51;95139.50;;;27.50;97.59
8298;BME280;4187;42.778;23.242;2023-06-14T09:49:20;95141.84;;;27.63;89.19
8298;BME280;4187;42.778;23.242;2023-06-14T09:51:51;95137.25;;;27.68;94.78
8298;BME280;4187;42.778;23.242;2023-06-14T09:54:22;95134.56;;;27.68;92.28
8298;BME280;4187;42.778;23.242;2023-06-14T09:56:52;95085.13;;;26.96;88.98
8298;BME280;4187;42.778;23.242;2023-06-14T09:59:22;95122.97;;;27.08;91.50
8298;BME280;4187;42.778;23.242;2023-06-14T10:01:58;95125.91;;;27.28;97.11
8298;BME280;4187;42.778;23.242;2023-06-14T10:04:27;95134.38;;;27.31;88.81
8298;BME280;4187;42.778;23.242;2023-06-14T10:06:58;95134.91;;;27.33;92.41
8298;BME280;4187;42.778;23.242;2023-06-14T10:09:27;95114.06;;;27.34;92.44
8298;BME280;4187;42.778;23.242;2023-06-14T10:11:56;95126.47;;;27.47;93.24
8298;BME280;4187;42.778;23.242;2023-06-14T10:14:23;95111.31;;;27.51;94.79
8298;BME280;4187;42.778;23.242;2023-06-14T10:16:59;95113.06;;;27.62;93.46
8298;BME280;4187;42.778;23.242;2023-06-14T10:19:34;95107.53;;;27.73;94.10
8298;BME280;4187;42.778;23.242;2023-06-14T10:22:10;95084.03;;;27.57;91.75
8298;BME280;4187;42.778;23.242;2023-06-14T10:24:42;95106.66;;;27.68;92.82
8298;BME280;4187;42.778;23.242;2023-06-14T10:27:13;95105.72;;;27.57;95.36
8298;BME280;4187;42.778;23.242;2023-06-14T10:30:03;95103.25;;;27.56;94.49
8298;BME280;4187;42.778;23.242;2023-06-14T10:35:01;95104.41;;;27.86;91.23
8298;BME280;4187;42.778;23.242;2023-06-14T10:37:33;95098.75;;;27.93;92.33
8298;BME280;4187;42.778;23.242;2023-06-14T10:40:02;95087.00;;;28.09;95.40
8298;BME280;4187;42.778;23.242;2023-06-14T10:42:32;95045.03;;;28.17;92.68
8298;BME280;4187;42.778;23.242;2023-06-14T10:45:00;95097.78;;;28.63;92.86
8298;BME280;4187;42.778;23.242;2023-06-14T10:47:29;95088.38;;;28.80;92.64
8298;BME280;4187;42.778;23.242;2023-06-14T10:50:03;95088.72;;;28.94;91.57
8298;BME280;4187;42.778;23.242;2023-06-14T10:52:34;95081.09;;;28.91;88.48
8298;BME280;4187;42.778;23.242;2023-06-14T10:55:09;95072.84;;;28.71;87.63
8298;BME280;4187;42.778;23.242;2023-06-14T10:57:39;95075.72;;;28.59;91.05
8298;BME280;4187;42.778;23.242;2023-06-14T11:00:09;95070.94;;;28.71;90.57
8298;BME280;4187;42.778;23.242;2023-06-14T11:05:48;95062.63;;;28.93;90.31
8298;BME280;4187;42.778;23.242;2023-06-14T11:11:35;95055.25;;;29.35;89.40
8298;BME280;4187;42.778;23.242;2023-06-14T11:14:04;95054.75;;;29.53;86.14
8298;BME280;4187;42.778;23.242;2023-06-14T11:16:31;95049.63;;;29.62;87.21
8298;BME280;4187;42.778;23.242;2023-06-14T11:19:00;95056.72;;;29.73;84.46
8298;BME280;4187;42.778;23.242;2023-06-14T11:21:28;95036.25;;;29.55;84.13
8298;BME280;4187;42.778;23.242;2023-06-14T11:24:00;95053.69;;;29.49;81.03
8298;BME280;4187;42.778;23.242;2023-06-14T11:26:28;95039.72;;;29.26;81.59
8298;BME280;4187;42.778;23.242;2023-06-14T11:28:56;95043.25;;;29.21;84.43
8298;BME280;4187;42.778;23.242;2023-06-14T11:31:24;95041.22;;;29.06;81.75
8298;BME280;4187;42.778;23.242;2023-06-14T11:33:53;95043.31;;;28.84;82.06
8298;BME280;4187;42.778;23.242;2023-06-14T11:36:21;95045.53;;;28.92;87.47
8298;BME280;4187;42.778;23.242;2023-06-14T11:38:48;95030.31;;;28.96;81.77
8298;BME280;4187;42.778;23.242;2023-06-14T11:41:17;95049.69;;;29.15;83.54
8298;BME280;4187;42.778;23.242;2023-06-14T11:43:44;95043.53;;;29.30;82.35
8298;BME280;4187;42.778;23.242;2023-06-14T11:46:14;95036.78;;;29.47;80.81
8298;BME280;4187;42.778;23.242;2023-06-14T11:48:43;95022.13;;;29.53;78.11
8298;BME280;4187;42.778;23.242;2023-06-14T11:51:20;95028.06;;;29.40;80.42
8298;BME280;4187;42.778;23.242;2023-06-14T11:53:47;94997.59;;;29.28;88.01
8298;BME280;4187;42.778;23.242;2023-06-14T11:56:15;95007.44;;;29.49;83.94
8298;BME280;4187;42.778;23.242;2023-06-14T11:58:44;94996.28;;;29.66;86.40
8298;BME280;4187;42.778;23.242;2023-06-14T12:01:14;95011.59;;;29.82;82.72
8298;BME280;4187;42.778;23.242;2023-06-14T12:03:47;95011.78;;;29.45;81.04
8298;BME280;4187;42.778;23.242;2023-06-14T12:06:15;95005.13;;;29.06;79.77
8298;BME280;4187;42.778;23.242;2023-06-14T12:08:43;95005.66;;;29.08;83.15
8298;BME280;4187;42.778;23.242;2023-06-14T12:11:12;94975.81;;;29.23;86.39
8298;BME280;4187;42.778;23.242;2023-06-14T12:13:39;94993.59;;;29.66;82.94
8298;BME280;4187;42.778;23.242;2023-06-14T12:16:08;94977.53;;;29.64;80.25
8298;BME280;4187;42.778;23.242;2023-06-14T12:18:37;94992.00;;;29.90;83.13
8298;BME280;4187;42.778;23.242;2023-06-14T12:21:05;94983.84;;;30.00;77.90
8298;BME280;4187;42.778;23.242;2023-06-14T12:23:47;94987.38;;;30.16;79.08
8298;BME280;4187;42.778;23.242;2023-06-14T12:26:15;94979.69;;;29.52;77.82
8298;BME280;4187;42.778;23.242;2023-06-14T12:28:44;94989.50;;;29.48;84.66
8298;BME280;4187;42.778;23.242;2023-06-14T12:31:16;94966.38;;;29.66;85.28
8298;BME280;4187;42.778;23.242;2023-06-14T12:33:44;94975.41;;;29.97;83.42
8298;BME280;4187;42.778;23.242;2023-06-14T12:36:14;94960.41;;;30.14;83.51
8298;BME280;4187;42.778;23.242;2023-06-14T12:38:42;94932.41;;;30.14;80.98
8298;BME280;4187;42.778;23.242;2023-06-14T12:41:09;94957.41;;;30.46;77.99
8298;BME280;4187;42.778;23.242;2023-06-14T12:43:36;94970.69;;;30.68;74.18
8298;BME280;4187;42.778;23.242;2023-06-14T12:46:03;94961.41;;;30.79;76.79
8298;BME280;4187;42.778;23.242;2023-06-14T12:48:32;94960.53;;;30.89;78.86
8298;BME280;4187;42.778;23.242;2023-06-14T12:51:00;94964.97;;;30.69;71.13
8298;BME280;4187;42.778;23.242;2023-06-14T12:53:27;94939.19;;;30.21;73.56
8298;BME280;4187;42.778;23.242;2023-06-14T12:55:54;94956.88;;;30.29;78.21
8298;BME280;4187;42.778;23.242;2023-06-14T12:58:22;94945.44;;;30.32;75.07
8298;BME280;4187;42.778;23.242;2023-06-14T13:00:49;94932.63;;;30.43;73.52
8298;BME280;4187;42.778;23.242;2023-06-14T13:03:17;94945.97;;;30.49;74.87
8298;BME280;4187;42.778;23.242;2023-06-14T13:05:46;94946.47;;;30.61;75.28
8298;BME280;4187;42.778;23.242;2023-06-14T13:08:13;94925.28;;;30.48;73.53
8298;BME280;4187;42.778;23.242;2023-06-14T13:10:40;94948.13;;;30.47;72.85
8298;BME280;4187;42.778;23.242;2023-06-14T13:13:08;94946.78;;;30.30;75.54
8298;BME280;4187;42.778;23.242;2023-06-14T13:15:38;94946.81;;;30.25;75.69
8298;BME280;4187;42.778;23.242;2023-06-14T13:18:05;94953.06;;;30.15;74.85
8298;BME280;4187;42.778;23.242;2023-06-14T13:20:33;94940.31;;;30.05;75.28